OIAH  Gachsaran Airport

Add Bookmark

Iran

Status
Operational
Latitude Longitude
30° 20' 15" N 50° 49' 40" E
30.337601 50.827999
Local (DST + 5) UTC (GMT + 4)
Nov 1, 2014 03:10 Nov 1, 2014 11:40
Sunrise-Sunset Local UTC
Begin Civil Twilight 05:55 02:25
Sunrise 06:19 02:49
Sunset 05:20 13:50
End Civil Twilight 05:45 14:15

Current Weather

METAR Observed VFR
OIAH 011100Z 12004KT 9999 FEW040TCU 25/10 Q1014 Sat, Nov 1, 2014 @ 11:00 UTC
(40 Minutes ago)
Visual Flight Rules
Wind Visibility Clouds Conditions
120° at 4 knots (7 kph) 10 km or more
  • Few at 4,000' AGL
  • No significant weather
Temperatures Readings Precipitation
Current Temp 25°C (77°F)
Dewpoint 10°C (50°F)
Humidity 39%
Altimeter 29.94"Hg
Sea Level Pressure 1014mb
Field Elevation 2421.26'
None Recorded

Additional weather within a 92.6km radius of OIAH

Map ICAO Location
OISY 79.6km E (059°)

24 Hour Weather History

Loading
-

24 Hour Weather Graphs

Loading
-

CheckWX.com is intended as a tool to help pilots better visualize weather data. It is not intended as a substitute for an official weather briefing obtained from a Flight Service Station. CheckWX.com does not meet the FAA requirements for an official pre-flight weather briefing. Therefore, it's important that pilots still call and obtain an official FSS pre-flight weather briefing.